sensor_id;sensor_type;location;lat;lon;timestamp;P1;durP1;ratioP1;P2;durP2;ratioP2
51010;SDS011;37038;50.182;8.624;2024-02-14T00:00:00;8.50;;;6.93;;
51010;SDS011;37038;50.182;8.624;2024-02-14T00:02:49;9.75;;;6.80;;
51010;SDS011;37038;50.182;8.624;2024-02-14T00:05:37;8.55;;;6.53;;
51010;SDS011;37038;50.182;8.624;2024-02-14T00:08:28;11.50;;;6.50;;
51010;SDS011;37038;50.182;8.624;2024-02-14T00:11:17;10.50;;;6.28;;
51010;SDS011;37038;50.182;8.624;2024-02-14T00:14:04;8.15;;;5.72;;
51010;SDS011;37038;50.182;8.624;2024-02-14T00:16:54;8.52;;;7.10;;
51010;SDS011;37038;50.182;8.624;2024-02-14T00:19:42;7.50;;;6.45;;
51010;SDS011;37038;50.182;8.624;2024-02-14T00:22:30;11.38;;;6.85;;
51010;SDS011;37038;50.182;8.624;2024-02-14T00:25:20;7.68;;;6.90;;
51010;SDS011;37038;50.182;8.624;2024-02-14T00:28:10;10.75;;;7.38;;
51010;SDS011;37038;50.182;8.624;2024-02-14T00:30:58;12.60;;;7.63;;
51010;SDS011;37038;50.182;8.624;2024-02-14T00:33:46;10.23;;;7.03;;
51010;SDS011;37038;50.182;8.624;2024-02-14T00:36:36;8.68;;;6.90;;
51010;SDS011;37038;50.182;8.624;2024-02-14T00:39:24;10.13;;;7.60;;
51010;SDS011;37038;50.182;8.624;2024-02-14T00:42:12;9.77;;;7.20;;
51010;SDS011;37038;50.182;8.624;2024-02-14T00:45:02;14.00;;;6.95;;
51010;SDS011;37038;50.182;8.624;2024-02-14T00:47:53;10.48;;;7.15;;
51010;SDS011;37038;50.182;8.624;2024-02-14T00:50:44;16.65;;;7.82;;
51010;SDS011;37038;50.182;8.624;2024-02-14T00:53:35;9.00;;;7.07;;
51010;SDS011;37038;50.182;8.624;2024-02-14T00:56:23;11.95;;;7.47;;
51010;SDS011;37038;50.182;8.624;2024-02-14T00:59:11;16.65;;;7.63;;
51010;SDS011;37038;50.182;8.624;2024-02-14T01:01:58;12.35;;;7.85;;
51010;SDS011;37038;50.182;8.624;2024-02-14T01:04:48;12.65;;;7.93;;
51010;SDS011;37038;50.182;8.624;2024-02-14T01:07:39;10.30;;;7.35;;
51010;SDS011;37038;50.182;8.624;2024-02-14T01:10:30;11.63;;;7.78;;
51010;SDS011;37038;50.182;8.624;2024-02-14T01:13:21;13.10;;;7.40;;
51010;SDS011;37038;50.182;8.624;2024-02-14T01:16:12;15.60;;;7.70;;
51010;SDS011;37038;50.182;8.624;2024-02-14T01:19:01;10.55;;;6.88;;
51010;SDS011;37038;50.182;8.624;2024-02-14T01:21:54;9.37;;;6.83;;
51010;SDS011;37038;50.182;8.624;2024-02-14T01:24:46;11.52;;;7.78;;
51010;SDS011;37038;50.182;8.624;2024-02-14T01:27:34;11.57;;;7.30;;
51010;SDS011;37038;50.182;8.624;2024-02-14T01:30:31;12.13;;;8.05;;
51010;SDS011;37038;50.182;8.624;2024-02-14T01:33:23;8.85;;;7.28;;
51010;SDS011;37038;50.182;8.624;2024-02-14T01:36:20;11.65;;;8.20;;
51010;SDS011;37038;50.182;8.624;2024-02-14T01:39:08;14.15;;;8.30;;
51010;SDS011;37038;50.182;8.624;2024-02-14T01:41:59;11.77;;;8.30;;
51010;SDS011;37038;50.182;8.624;2024-02-14T01:44:50;10.68;;;7.55;;
51010;SDS011;37038;50.182;8.624;2024-02-14T01:47:41;12.45;;;7.22;;
51010;SDS011;37038;50.182;8.624;2024-02-14T01:50:35;9.82;;;7.18;;
51010;SDS011;37038;50.182;8.624;2024-02-14T01:53:25;10.57;;;7.50;;
51010;SDS011;37038;50.182;8.624;2024-02-14T01:56:22;12.93;;;7.97;;
51010;SDS011;37038;50.182;8.624;2024-02-14T01:59:17;13.30;;;8.00;;
51010;SDS011;37038;50.182;8.624;2024-02-14T02:02:06;14.13;;;8.57;;
51010;SDS011;37038;50.182;8.624;2024-02-14T02:04:56;15.65;;;8.00;;
51010;SDS011;37038;50.182;8.624;2024-02-14T02:07:45;9.30;;;7.43;;
51010;SDS011;37038;50.182;8.624;2024-02-14T02:10:38;10.95;;;8.35;;
51010;SDS011;37038;50.182;8.624;2024-02-14T02:13:29;12.38;;;8.15;;
51010;SDS011;37038;50.182;8.624;2024-02-14T02:16:24;14.23;;;8.18;;
51010;SDS011;37038;50.182;8.624;2024-02-14T02:19:12;11.85;;;8.05;;
51010;SDS011;37038;50.182;8.624;2024-02-14T02:22:01;10.65;;;8.73;;
51010;SDS011;37038;50.182;8.624;2024-02-14T02:27:42;14.10;;;8.45;;
51010;SDS011;37038;50.182;8.624;2024-02-14T02:30:39;10.27;;;7.63;;
51010;SDS011;37038;50.182;8.624;2024-02-14T02:33:29;13.48;;;9.18;;
51010;SDS011;37038;50.182;8.624;2024-02-14T02:36:20;16.17;;;9.25;;
51010;SDS011;37038;50.182;8.624;2024-02-14T02:39:11;10.98;;;8.50;;
51010;SDS011;37038;50.182;8.624;2024-02-14T02:42:02;9.60;;;8.52;;
51010;SDS011;37038;50.182;8.624;2024-02-14T02:44:54;11.02;;;9.30;;
51010;SDS011;37038;50.182;8.624;2024-02-14T02:47:42;11.13;;;8.90;;
51010;SDS011;37038;50.182;8.624;2024-02-14T02:50:30;11.82;;;8.77;;
51010;SDS011;37038;50.182;8.624;2024-02-14T02:53:18;15.10;;;8.82;;
51010;SDS011;37038;50.182;8.624;2024-02-14T02:56:10;12.98;;;9.10;;
51010;SDS011;37038;50.182;8.624;2024-02-14T02:58:59;15.90;;;8.95;;
51010;SDS011;37038;50.182;8.624;2024-02-14T03:01:49;13.25;;;9.00;;
51010;SDS011;37038;50.182;8.624;2024-02-14T03:04:38;16.17;;;8.27;;
51010;SDS011;37038;50.182;8.624;2024-02-14T03:07:38;12.68;;;9.07;;
51010;SDS011;37038;50.182;8.624;2024-02-14T03:10:26;15.70;;;9.13;;
51010;SDS011;37038;50.182;8.624;2024-02-14T03:13:16;13.45;;;9.93;;
51010;SDS011;37038;50.182;8.624;2024-02-14T03:16:07;15.18;;;9.45;;
51010;SDS011;37038;50.182;8.624;2024-02-14T03:18:54;13.07;;;9.57;;
51010;SDS011;37038;50.182;8.624;2024-02-14T03:21:42;12.80;;;8.80;;
51010;SDS011;37038;50.182;8.624;2024-02-14T03:24:36;10.43;;;8.63;;
51010;SDS011;37038;50.182;8.624;2024-02-14T03:27:32;15.35;;;8.80;;
51010;SDS011;37038;50.182;8.624;2024-02-14T03:30:27;13.63;;;8.95;;
51010;SDS011;37038;50.182;8.624;2024-02-14T03:33:16;13.63;;;9.65;;
51010;SDS011;37038;50.182;8.624;2024-02-14T03:36:05;11.98;;;8.98;;
51010;SDS011;37038;50.182;8.624;2024-02-14T03:38:53;13.52;;;9.77;;
51010;SDS011;37038;50.182;8.624;2024-02-14T03:41:41;14.80;;;10.45;;
51010;SDS011;37038;50.182;8.624;2024-02-14T03:44:29;12.38;;;9.75;;
51010;SDS011;37038;50.182;8.624;2024-02-14T03:47:18;13.25;;;10.38;;
51010;SDS011;37038;50.182;8.624;2024-02-14T03:50:06;14.25;;;9.20;;
51010;SDS011;37038;50.182;8.624;2024-02-14T03:52:54;11.80;;;9.48;;
51010;SDS011;37038;50.182;8.624;2024-02-14T03:55:45;15.68;;;9.63;;
51010;SDS011;37038;50.182;8.624;2024-02-14T03:58:32;15.38;;;9.75;;
51010;SDS011;37038;50.182;8.624;2024-02-14T04:01:27;18.02;;;9.77;;
51010;SDS011;37038;50.182;8.624;2024-02-14T04:04:16;13.35;;;10.75;;
51010;SDS011;37038;50.182;8.624;2024-02-14T04:07:04;13.68;;;9.75;;
51010;SDS011;37038;50.182;8.624;2024-02-14T04:09:53;14.23;;;10.00;;
51010;SDS011;37038;50.182;8.624;2024-02-14T04:12:41;14.43;;;10.25;;
51010;SDS011;37038;50.182;8.624;2024-02-14T04:15:32;17.58;;;10.10;;
51010;SDS011;37038;50.182;8.624;2024-02-14T04:18:20;14.32;;;10.30;;
51010;SDS011;37038;50.182;8.624;2024-02-14T04:21:11;15.45;;;9.90;;
51010;SDS011;37038;50.182;8.624;2024-02-14T04:24:01;20.95;;;10.20;;
51010;SDS011;37038;50.182;8.624;2024-02-14T04:26:50;16.88;;;9.65;;
51010;SDS011;37038;50.182;8.624;2024-02-14T04:29:40;13.07;;;8.95;;
51010;SDS011;37038;50.182;8.624;2024-02-14T04:32:30;16.02;;;9.15;;
51010;SDS011;37038;50.182;8.624;2024-02-14T04:35:22;16.80;;;10.38;;
51010;SDS011;37038;50.182;8.624;2024-02-14T04:38:12;14.88;;;9.63;;
51010;SDS011;37038;50.182;8.624;2024-02-14T04:41:05;18.05;;;9.27;;
51010;SDS011;37038;50.182;8.624;2024-02-14T04:43:53;16.15;;;9.27;;
51010;SDS011;37038;50.182;8.624;2024-02-14T04:46:41;13.68;;;9.40;;
51010;SDS011;37038;50.182;8.624;2024-02-14T04:49:31;14.88;;;9.20;;
51010;SDS011;37038;50.182;8.624;2024-02-14T04:52:22;14.23;;;8.88;;
51010;SDS011;37038;50.182;8.624;2024-02-14T04:55:10;12.93;;;8.90;;
51010;SDS011;37038;50.182;8.624;2024-02-14T04:58:00;12.20;;;8.23;;
51010;SDS011;37038;50.182;8.624;2024-02-14T05:00:56;14.32;;;9.02;;
51010;SDS011;37038;50.182;8.624;2024-02-14T05:03:44;14.63;;;9.10;;
51010;SDS011;37038;50.182;8.624;2024-02-14T05:06:32;16.25;;;9.63;;
51010;SDS011;37038;50.182;8.624;2024-02-14T05:09:21;15.55;;;9.05;;
51010;SDS011;37038;50.182;8.624;2024-02-14T05:12:17;12.80;;;9.65;;
51010;SDS011;37038;50.182;8.624;2024-02-14T05:15:10;10.45;;;9.35;;
51010;SDS011;37038;50.182;8.624;2024-02-14T05:17:59;12.40;;;8.93;;
51010;SDS011;37038;50.182;8.624;2024-02-14T05:20:48;13.02;;;9.70;;
51010;SDS011;37038;50.182;8.624;2024-02-14T05:23:38;14.90;;;9.07;;
51010;SDS011;37038;50.182;8.624;2024-02-14T05:26:26;13.32;;;9.55;;
51010;SDS011;37038;50.182;8.624;2024-02-14T05:29:16;17.17;;;10.27;;
51010;SDS011;37038;50.182;8.624;2024-02-14T05:32:08;16.30;;;9.43;;
51010;SDS011;37038;50.182;8.624;2024-02-14T05:34:57;18.23;;;10.18;;
51010;SDS011;37038;50.182;8.624;2024-02-14T05:37:45;13.82;;;8.80;;
51010;SDS011;37038;50.182;8.624;2024-02-14T05:40:37;14.23;;;9.95;;
51010;SDS011;37038;50.182;8.624;2024-02-14T05:43:26;15.05;;;9.68;;
51010;SDS011;37038;50.182;8.624;2024-02-14T05:46:20;13.15;;;9.95;;
51010;SDS011;37038;50.182;8.624;2024-02-14T05:49:12;14.05;;;9.68;;
51010;SDS011;37038;50.182;8.624;2024-02-14T05:52:00;13.43;;;10.02;;
51010;SDS011;37038;50.182;8.624;2024-02-14T05:54:52;13.10;;;10.23;;
51010;SDS011;37038;50.182;8.624;2024-02-14T05:57:41;18.27;;;10.82;;
51010;SDS011;37038;50.182;8.624;2024-02-14T06:00:38;13.45;;;10.80;;
51010;SDS011;37038;50.182;8.624;2024-02-14T06:03:31;16.30;;;10.90;;
51010;SDS011;37038;50.182;8.624;2024-02-14T06:06:19;16.80;;;11.38;;
51010;SDS011;37038;50.182;8.624;2024-02-14T06:09:07;14.98;;;10.80;;
51010;SDS011;37038;50.182;8.624;2024-02-14T06:11:59;15.45;;;10.18;;
51010;SDS011;37038;50.182;8.624;2024-02-14T06:14:50;16.50;;;10.27;;
51010;SDS011;37038;50.182;8.624;2024-02-14T06:17:38;15.55;;;9.65;;
51010;SDS011;37038;50.182;8.624;2024-02-14T06:20:28;17.40;;;9.65;;
51010;SDS011;37038;50.182;8.624;2024-02-14T06:23:19;14.73;;;10.20;;
51010;SDS011;37038;50.182;8.624;2024-02-14T06:26:26;13.48;;;9.52;;
51010;SDS011;37038;50.182;8.624;2024-02-14T06:29:25;13.38;;;9.75;;
51010;SDS011;37038;50.182;8.624;2024-02-14T06:32:24;14.50;;;9.32;;
51010;SDS011;37038;50.182;8.624;2024-02-14T06:35:15;12.88;;;9.65;;
51010;SDS011;37038;50.182;8.624;2024-02-14T06:38:12;15.68;;;9.80;;
51010;SDS011;37038;50.182;8.624;2024-02-14T06:44:01;13.38;;;10.30;;
51010;SDS011;37038;50.182;8.624;2024-02-14T06:47:38;14.93;;;9.10;;
51010;SDS011;37038;50.182;8.624;2024-02-14T06:50:55;14.85;;;8.98;;
51010;SDS011;37038;50.182;8.624;2024-02-14T07:01:54;17.60;;;9.23;;
51010;SDS011;37038;50.182;8.624;2024-02-14T07:23:36;11.18;;;7.97;;
51010;SDS011;37038;50.182;8.624;2024-02-14T07:27:00;15.45;;;8.70;;
51010;SDS011;37038;50.182;8.624;2024-02-14T07:30:21;12.48;;;7.50;;
51010;SDS011;37038;50.182;8.624;2024-02-14T08:43:02;9.40;;;5.93;;
51010;SDS011;37038;50.182;8.624;2024-02-14T08:45:59;8.63;;;5.15;;
51010;SDS011;37038;50.182;8.624;2024-02-14T08:48:47;7.78;;;5.43;;
51010;SDS011;37038;50.182;8.624;2024-02-14T08:59:23;5.60;;;5.07;;
51010;SDS011;37038;50.182;8.624;2024-02-14T09:06:17;14.02;;;5.70;;
51010;SDS011;37038;50.182;8.624;2024-02-14T09:09:08;12.38;;;5.85;;
51010;SDS011;37038;50.182;8.624;2024-02-14T09:11:58;5.78;;;4.65;;
51010;SDS011;37038;50.182;8.624;2024-02-14T09:14:53;7.82;;;5.20;;
51010;SDS011;37038;50.182;8.624;2024-02-14T09:17:46;11.23;;;5.18;;
51010;SDS011;37038;50.182;8.624;2024-02-14T09:25:36;9.57;;;4.47;;
51010;SDS011;37038;50.182;8.624;2024-02-14T09:40:22;11.45;;;5.60;;
51010;SDS011;37038;50.182;8.624;2024-02-14T09:43:38;8.02;;;4.93;;
51010;SDS011;37038;50.182;8.624;2024-02-14T09:47:23;8.63;;;4.63;;
51010;SDS011;37038;50.182;8.624;2024-02-14T09:50:23;6.85;;;4.50;;
51010;SDS011;37038;50.182;8.624;2024-02-14T09:53:44;9.05;;;4.93;;
51010;SDS011;37038;50.182;8.624;2024-02-14T09:56:48;8.82;;;5.10;;
51010;SDS011;37038;50.182;8.624;2024-02-14T09:59:46;10.52;;;5.20;;
51010;SDS011;37038;50.182;8.624;2024-02-14T10:02:52;6.25;;;4.70;;
51010;SDS011;37038;50.182;8.624;2024-02-14T10:06:10;7.80;;;4.80;;
51010;SDS011;37038;50.182;8.624;2024-02-14T10:13:43;8.48;;;5.03;;
51010;SDS011;37038;50.182;8.624;2024-02-14T10:17:21;7.68;;;4.90;;
51010;SDS011;37038;50.182;8.624;2024-02-14T10:28:53;7.85;;;5.65;;
51010;SDS011;37038;50.182;8.624;2024-02-14T10:37:19;9.57;;;5.57;;
51010;SDS011;37038;50.182;8.624;2024-02-14T10:41:10;8.75;;;5.55;;
51010;SDS011;37038;50.182;8.624;2024-02-14T10:45:04;10.35;;;5.85;;
51010;SDS011;37038;50.182;8.624;2024-02-14T10:55:24;14.13;;;5.30;;
51010;SDS011;37038;50.182;8.624;2024-02-14T10:59:33;11.27;;;5.22;;
51010;SDS011;37038;50.182;8.624;2024-02-14T11:03:06;7.57;;;4.75;;
51010;SDS011;37038;50.182;8.624;2024-02-14T11:06:04;9.57;;;5.05;;
51010;SDS011;37038;50.182;8.624;2024-02-14T11:17:23;8.27;;;4.63;;
51010;SDS011;37038;50.182;8.624;2024-02-14T11:27:43;5.28;;;4.30;;
51010;SDS011;37038;50.182;8.624;2024-02-14T11:31:56;7.35;;;4.10;;
51010;SDS011;37038;50.182;8.624;2024-02-14T11:35:36;6.53;;;4.00;;
51010;SDS011;37038;50.182;8.624;2024-02-14T11:39:13;14.68;;;4.63;;
51010;SDS011;37038;50.182;8.624;2024-02-14T11:42:27;13.97;;;4.60;;
51010;SDS011;37038;50.182;8.624;2024-02-14T11:46:18;9.35;;;4.47;;
51010;SDS011;37038;50.182;8.624;2024-02-14T12:02:14;5.47;;;3.42;;
51010;SDS011;37038;50.182;8.624;2024-02-14T12:05:10;6.40;;;4.25;;
51010;SDS011;37038;50.182;8.624;2024-02-14T12:08:03;3.55;;;3.25;;
51010;SDS011;37038;50.182;8.624;2024-02-14T12:10:56;6.25;;;3.80;;
51010;SDS011;37038;50.182;8.624;2024-02-14T12:13:53;9.18;;;3.40;;
51010;SDS011;37038;50.182;8.624;2024-02-14T12:16:56;4.45;;;3.80;;
51010;SDS011;37038;50.182;8.624;2024-02-14T12:19:51;5.32;;;3.30;;
51010;SDS011;37038;50.182;8.624;2024-02-14T12:22:50;4.80;;;3.28;;
51010;SDS011;37038;50.182;8.624;2024-02-14T12:25:41;4.15;;;3.13;;
51010;SDS011;37038;50.182;8.624;2024-02-14T12:28:31;4.70;;;2.72;;
51010;SDS011;37038;50.182;8.624;2024-02-14T12:31:27;4.88;;;3.20;;
51010;SDS011;37038;50.182;8.624;2024-02-14T12:34:21;3.50;;;2.83;;
51010;SDS011;37038;50.182;8.624;2024-02-14T12:37:12;4.20;;;3.03;;
51010;SDS011;37038;50.182;8.624;2024-02-14T12:40:30;4.15;;;3.38;;
51010;SDS011;37038;50.182;8.624;2024-02-14T12:44:14;5.93;;;3.10;;
51010;SDS011;37038;50.182;8.624;2024-02-14T12:47:21;4.40;;;3.80;;
51010;SDS011;37038;50.182;8.624;2024-02-14T12:50:45;5.10;;;3.47;;
51010;SDS011;37038;50.182;8.624;2024-02-14T12:54:20;5.00;;;3.33;;
51010;SDS011;37038;50.182;8.624;2024-02-14T12:57:47;5.00;;;3.55;;
51010;SDS011;37038;50.182;8.624;2024-02-14T13:00:44;5.43;;;4.00;;
51010;SDS011;37038;50.182;8.624;2024-02-14T13:11:50;6.93;;;4.10;;
51010;SDS011;37038;50.182;8.624;2024-02-14T13:14:40;7.18;;;4.28;;
51010;SDS011;37038;50.182;8.624;2024-02-14T13:17:30;5.28;;;4.50;;
51010;SDS011;37038;50.182;8.624;2024-02-14T13:20:27;10.52;;;4.60;;
51010;SDS011;37038;50.182;8.624;2024-02-14T13:23:41;6.60;;;4.55;;
51010;SDS011;37038;50.182;8.624;2024-02-14T13:27:30;6.75;;;4.75;;
51010;SDS011;37038;50.182;8.624;2024-02-14T13:30:34;8.07;;;4.55;;
51010;SDS011;37038;50.182;8.624;2024-02-14T13:33:24;5.38;;;4.38;;
51010;SDS011;37038;50.182;8.624;2024-02-14T13:36:26;7.10;;;4.80;;
51010;SDS011;37038;50.182;8.624;2024-02-14T13:39:31;7.70;;;5.10;;
51010;SDS011;37038;50.182;8.624;2024-02-14T13:42:28;6.35;;;4.93;;
51010;SDS011;37038;50.182;8.624;2024-02-14T13:45:25;8.45;;;6.07;;
51010;SDS011;37038;50.182;8.624;2024-02-14T13:48:20;9.45;;;5.05;;
51010;SDS011;37038;50.182;8.624;2024-02-14T13:51:33;8.23;;;4.80;;
51010;SDS011;37038;50.182;8.624;2024-02-14T13:54:41;8.55;;;5.20;;
51010;SDS011;37038;50.182;8.624;2024-02-14T13:57:37;9.57;;;5.13;;
51010;SDS011;37038;50.182;8.624;2024-02-14T14:01:15;12.07;;;5.70;;
51010;SDS011;37038;50.182;8.624;2024-02-14T14:10:15;6.82;;;5.65;;
51010;SDS011;37038;50.182;8.624;2024-02-14T14:13:19;9.15;;;5.32;;
51010;SDS011;37038;50.182;8.624;2024-02-14T14:16:17;8.57;;;5.20;;
51010;SDS011;37038;50.182;8.624;2024-02-14T14:19:08;7.00;;;5.15;;
51010;SDS011;37038;50.182;8.624;2024-02-14T14:21:58;9.60;;;5.65;;
51010;SDS011;37038;50.182;8.624;2024-02-14T14:24:50;7.07;;;5.57;;
51010;SDS011;37038;50.182;8.624;2024-02-14T14:27:46;10.48;;;7.35;;
51010;SDS011;37038;50.182;8.624;2024-02-14T14:30:40;9.60;;;6.93;;
51010;SDS011;37038;50.182;8.624;2024-02-14T14:34:14;9.60;;;7.22;;
51010;SDS011;37038;50.182;8.624;2024-02-14T14:37:18;9.35;;;6.50;;
51010;SDS011;37038;50.182;8.624;2024-02-14T14:40:19;9.45;;;6.38;;
51010;SDS011;37038;50.182;8.624;2024-02-14T14:43:21;11.07;;;6.97;;
51010;SDS011;37038;50.182;8.624;2024-02-14T14:51:03;10.20;;;7.15;;
51010;SDS011;37038;50.182;8.624;2024-02-14T14:54:20;10.07;;;7.22;;
51010;SDS011;37038;50.182;8.624;2024-02-14T14:57:32;9.20;;;7.63;;
51010;SDS011;37038;50.182;8.624;2024-02-14T15:01:02;8.10;;;6.80;;
51010;SDS011;37038;50.182;8.624;2024-02-14T15:04:36;11.15;;;7.40;;
51010;SDS011;37038;50.182;8.624;2024-02-14T15:07:42;9.50;;;7.60;;
51010;SDS011;37038;50.182;8.624;2024-02-14T15:14:10;8.43;;;6.82;;
51010;SDS011;37038;50.182;8.624;2024-02-14T15:17:31;8.40;;;6.82;;
51010;SDS011;37038;50.182;8.624;2024-02-14T15:21:02;7.88;;;6.85;;
51010;SDS011;37038;50.182;8.624;2024-02-14T15:27:48;8.35;;;7.55;;
51010;SDS011;37038;50.182;8.624;2024-02-14T15:50:29;8.95;;;7.50;;
51010;SDS011;37038;50.182;8.624;2024-02-14T15:54:20;7.97;;;7.18;;
51010;SDS011;37038;50.182;8.624;2024-02-14T15:57:45;9.70;;;7.38;;
51010;SDS011;37038;50.182;8.624;2024-02-14T16:03:30;10.90;;;8.27;;
51010;SDS011;37038;50.182;8.624;2024-02-14T16:06:32;8.93;;;8.02;;
51010;SDS011;37038;50.182;8.624;2024-02-14T16:09:56;13.55;;;9.13;;
51010;SDS011;37038;50.182;8.624;2024-02-14T16:24:52;13.73;;;9.38;;
51010;SDS011;37038;50.182;8.624;2024-02-14T16:40:18;14.65;;;10.50;;
51010;SDS011;37038;50.182;8.624;2024-02-14T16:44:40;11.55;;;10.05;;
51010;SDS011;37038;50.182;8.624;2024-02-14T16:56:31;10.88;;;8.40;;
51010;SDS011;37038;50.182;8.624;2024-02-14T17:13:16;8.45;;;7.03;;
51010;SDS011;37038;50.182;8.624;2024-02-14T17:17:00;7.60;;;6.90;;
51010;SDS011;37038;50.182;8.624;2024-02-14T17:19:56;9.40;;;6.97;;
51010;SDS011;37038;50.182;8.624;2024-02-14T17:23:26;11.98;;;7.20;;
51010;SDS011;37038;50.182;8.624;2024-02-14T17:30:21;10.13;;;8.40;;
51010;SDS011;37038;50.182;8.624;2024-02-14T17:33:32;13.50;;;9.13;;
51010;SDS011;37038;50.182;8.624;2024-02-14T17:40:45;11.10;;;9.98;;
51010;SDS011;37038;50.182;8.624;2024-02-14T17:43:44;11.15;;;10.05;;
51010;SDS011;37038;50.182;8.624;2024-02-14T17:46:44;15.15;;;9.55;;
51010;SDS011;37038;50.182;8.624;2024-02-14T17:49:50;11.00;;;9.50;;
51010;SDS011;37038;50.182;8.624;2024-02-14T17:53:51;15.25;;;10.15;;
51010;SDS011;37038;50.182;8.624;2024-02-14T17:56:57;12.40;;;10.20;;
51010;SDS011;37038;50.182;8.624;2024-02-14T18:00:23;12.38;;;10.55;;
51010;SDS011;37038;50.182;8.624;2024-02-14T18:03:47;18.85;;;11.68;;
51010;SDS011;37038;50.182;8.624;2024-02-14T18:07:17;19.58;;;12.05;;
51010;SDS011;37038;50.182;8.624;2024-02-14T18:10:47;19.60;;;14.27;;
51010;SDS011;37038;50.182;8.624;2024-02-14T18:14:40;21.67;;;15.10;;
51010;SDS011;37038;50.182;8.624;2024-02-14T18:18:28;16.23;;;14.07;;
51010;SDS011;37038;50.182;8.624;2024-02-14T18:34:13;22.15;;;16.45;;
51010;SDS011;37038;50.182;8.624;2024-02-14T18:41:57;20.52;;;17.73;;
51010;SDS011;37038;50.182;8.624;2024-02-14T18:45:00;24.63;;;18.60;;
51010;SDS011;37038;50.182;8.624;2024-02-14T19:00:37;21.88;;;18.25;;
51010;SDS011;37038;50.182;8.624;2024-02-14T19:03:34;21.73;;;19.42;;
51010;SDS011;37038;50.182;8.624;2024-02-14T19:07:15;25.42;;;19.52;;
51010;SDS011;37038;50.182;8.624;2024-02-14T19:11:24;21.40;;;18.55;;
51010;SDS011;37038;50.182;8.624;2024-02-14T19:23:41;20.40;;;17.65;;
51010;SDS011;37038;50.182;8.624;2024-02-14T19:31:35;17.00;;;14.45;;
51010;SDS011;37038;50.182;8.624;2024-02-14T19:35:12;17.83;;;15.05;;
51010;SDS011;37038;50.182;8.624;2024-02-14T19:42:45;16.42;;;14.73;;
51010;SDS011;37038;50.182;8.624;2024-02-14T19:49:25;18.33;;;14.02;;
51010;SDS011;37038;50.182;8.624;2024-02-14T19:52:53;16.20;;;14.02;;
51010;SDS011;37038;50.182;8.624;2024-02-14T19:58:47;18.08;;;16.08;;
51010;SDS011;37038;50.182;8.624;2024-02-14T20:06:58;18.33;;;16.13;;
51010;SDS011;37038;50.182;8.624;2024-02-14T20:19:17;22.48;;;17.95;;
51010;SDS011;37038;50.182;8.624;2024-02-14T20:30:49;21.83;;;16.58;;
51010;SDS011;37038;50.182;8.624;2024-02-14T20:33:55;21.77;;;17.48;;
51010;SDS011;37038;50.182;8.624;2024-02-14T20:37:49;20.35;;;18.08;;
51010;SDS011;37038;50.182;8.624;2024-02-14T20:50:57;27.83;;;22.05;;
51010;SDS011;37038;50.182;8.624;2024-02-14T21:25:34;37.80;;;25.73;;
51010;SDS011;37038;50.182;8.624;2024-02-14T21:32:13;35.72;;;25.88;;
51010;SDS011;37038;50.182;8.624;2024-02-14T21:40:00;34.35;;;24.35;;
51010;SDS011;37038;50.182;8.624;2024-02-14T21:44:13;34.33;;;25.88;;
51010;SDS011;37038;50.182;8.624;2024-02-14T21:47:42;35.55;;;26.83;;
51010;SDS011;37038;50.182;8.624;2024-02-14T21:54:40;39.22;;;26.58;;
51010;SDS011;37038;50.182;8.624;2024-02-14T22:02:50;44.03;;;28.95;;
51010;SDS011;37038;50.182;8.624;2024-02-14T22:13:05;41.95;;;28.65;;
51010;SDS011;37038;50.182;8.624;2024-02-14T22:16:45;44.53;;;30.97;;
51010;SDS011;37038;50.182;8.624;2024-02-14T22:19:54;47.78;;;33.35;;
51010;SDS011;37038;50.182;8.624;2024-02-14T22:22:53;51.85;;;33.90;;
51010;SDS011;37038;50.182;8.624;2024-02-14T22:26:17;58.13;;;36.63;;
51010;SDS011;37038;50.182;8.624;2024-02-14T22:29:39;48.53;;;33.70;;
51010;SDS011;37038;50.182;8.624;2024-02-14T22:33:02;54.22;;;36.17;;
51010;SDS011;37038;50.182;8.624;2024-02-14T22:37:06;53.50;;;33.25;;
51010;SDS011;37038;50.182;8.624;2024-02-14T22:43:08;52.20;;;34.22;;
51010;SDS011;37038;50.182;8.624;2024-02-14T22:54:21;59.65;;;37.33;;
51010;SDS011;37038;50.182;8.624;2024-02-14T23:01:45;58.97;;;36.17;;
51010;SDS011;37038;50.182;8.624;2024-02-14T23:09:42;55.80;;;37.72;;
51010;SDS011;37038;50.182;8.624;2024-02-14T23:13:44;59.63;;;36.70;;
51010;SDS011;37038;50.182;8.624;2024-02-14T23:16:53;57.22;;;35.35;;
51010;SDS011;37038;50.182;8.624;2024-02-14T23:20:42;67.65;;;37.70;;
51010;SDS011;37038;50.182;8.624;2024-02-14T23:24:12;66.97;;;38.10;;
51010;SDS011;37038;50.182;8.624;2024-02-14T23:27:30;66.07;;;38.42;;
51010;SDS011;37038;50.182;8.624;2024-02-14T23:30:45;65.07;;;38.95;;
51010;SDS011;37038;50.182;8.624;2024-02-14T23:38:21;81.47;;;44.10;;
51010;SDS011;37038;50.182;8.624;2024-02-14T23:45:25;95.63;;;48.55;;
51010;SDS011;37038;50.182;8.624;2024-02-14T23:49:22;83.40;;;44.63;;
51010;SDS011;37038;50.182;8.624;2024-02-14T23:57:06;73.30;;;42.00;;
